createdAt,value
2017-04-06T00:00:20.418Z,32.34
2017-04-06T00:01:30.657Z,32.44
2017-04-06T00:02:40.905Z,32.15
2017-04-06T00:03:50.829Z,32.34
2017-04-06T00:05:01.070Z,32.64
2017-04-06T00:06:11.006Z,32.34
2017-04-06T00:07:20.931Z,32.34
2017-04-06T00:08:30.853Z,32.06
2017-04-06T00:09:40.778Z,32.25
2017-04-06T00:10:51.011Z,32.34
2017-04-06T00:12:00.618Z,32.44
2017-04-06T00:13:10.855Z,32.54
2017-04-06T00:14:20.791Z,32.25
2017-04-06T00:15:30.714Z,32.44
2017-04-06T00:16:40.322Z,32.34
2017-04-06T00:17:50.557Z,32.44
2017-04-06T00:19:00.478Z,32.54
2017-04-06T00:20:10.721Z,32.15
2017-04-06T00:21:20.983Z,32.25
2017-04-06T00:22:31.225Z,32.44
2017-04-06T00:23:41.459Z,32.25
2017-04-06T00:24:51.075Z,32.54
2017-04-06T00:26:01.316Z,32.33
2017-04-06T00:27:11.592Z,32.25
2017-04-06T00:28:21.838Z,32.15
2017-04-06T00:29:31.446Z,32.25
2017-04-06T00:30:41.386Z,32.06
2017-04-06T00:31:51.310Z,32.25
2017-04-06T00:33:01.551Z,32.15
2017-04-06T00:34:11.797Z,32.04
2017-04-06T00:35:21.732Z,32.43
2017-04-06T00:36:31.967Z,32.73
2017-04-06T00:37:42.204Z,32.06
2017-04-06T00:38:52.123Z,32.25
2017-04-06T00:40:02.356Z,32.34
2017-04-06T00:41:11.968Z,32.06
2017-04-06T00:42:21.901Z,32.44
2017-04-06T00:43:32.148Z,31.96
2017-04-06T00:44:42.070Z,32.06
2017-04-06T00:45:52.312Z,31.85
2017-04-06T00:47:02.247Z,32.25
2017-04-06T00:48:12.510Z,31.57
2017-04-06T00:49:22.744Z,32.43
2017-04-06T00:50:32.990Z,32.14
2017-04-06T00:51:43.231Z,32.14
2017-04-06T00:52:53.471Z,31.85
2017-04-06T00:54:03.396Z,32.14
2017-04-06T00:55:13.020Z,31.85
2017-04-06T00:56:22.973Z,32.14
2017-04-06T00:57:32.900Z,31.75
2017-04-06T00:58:43.141Z,31.85
2017-04-06T00:59:53.070Z,32.14
2017-04-06T01:01:02.999Z,31.65
2017-04-06T01:02:13.244Z,32.25
2017-04-06T01:03:23.167Z,32.34
2017-04-06T01:04:33.108Z,32.06
2017-04-06T01:05:43.347Z,32.14
2017-04-06T01:06:53.274Z,32.15
2017-04-06T01:08:03.522Z,31.95
2017-04-06T01:09:13.760Z,31.46
2017-04-06T01:10:24.024Z,32.15
2017-04-06T01:11:34.265Z,32.04
2017-04-06T01:12:44.190Z,32.04
2017-04-06T01:13:54.427Z,32.23
2017-04-06T01:15:04.675Z,32.23
2017-04-06T01:16:14.598Z,31.85
2017-04-06T01:17:24.531Z,32.14
2017-04-06T01:18:34.453Z,32.33
2017-04-06T01:19:43.751Z,32.33
2017-04-06T01:20:53.704Z,32.14
2017-04-06T01:22:03.634Z,32.14
2017-04-06T01:23:13.872Z,32.43
2017-04-06T01:24:23.797Z,32.33
2017-04-06T01:25:34.036Z,32.14
2017-04-06T01:26:43.957Z,31.85
2017-04-06T01:27:54.198Z,32.04
2017-04-06T01:29:04.150Z,31.85
2017-04-06T01:30:13.767Z,32.23
2017-04-06T01:31:23.694Z,32.14
2017-04-06T01:32:33.618Z,32.23
2017-04-06T01:33:43.544Z,32.33
2017-04-06T01:34:53.783Z,31.96
2017-04-06T01:36:04.020Z,32.14
2017-04-06T01:37:14.262Z,32.33
2017-04-06T01:38:23.563Z,31.96
2017-04-06T01:39:33.796Z,32.14
2017-04-06T01:40:43.721Z,31.95
2017-04-06T01:41:53.647Z,31.95
2017-04-06T01:43:03.885Z,32.43
2017-04-06T01:44:13.811Z,32.43
2017-04-06T01:45:23.739Z,32.33
2017-04-06T01:46:33.982Z,32.14
2017-04-06T01:47:44.219Z,32.43
2017-04-06T01:48:54.148Z,32.04
2017-04-06T01:50:04.077Z,31.46
2017-04-06T01:51:14.312Z,31.46
2017-04-06T01:52:24.551Z,32.04
2017-04-06T01:53:34.471Z,32.14
2017-04-06T01:54:44.711Z,31.95
2017-04-06T01:55:54.948Z,31.75
2017-04-06T01:57:05.183Z,32.04
2017-04-06T01:58:15.112Z,31.75
2017-04-06T01:59:25.029Z,32.04
2017-04-06T02:00:35.271Z,32.04
2017-04-06T02:01:45.206Z,31.85
2017-04-06T02:02:55.444Z,31.85
2017-04-06T02:04:05.679Z,32.04
2017-04-06T02:05:15.932Z,32.04
2017-04-06T02:06:26.167Z,31.85
2017-04-06T02:07:36.413Z,31.95
2017-04-06T02:08:46.354Z,32.23
2017-04-06T02:09:55.968Z,31.85
2017-04-06T02:11:05.581Z,31.75
2017-04-06T02:12:15.822Z,32.14
2017-04-06T02:13:25.746Z,31.85
2017-04-06T02:14:35.998Z,31.95
2017-04-06T02:15:46.239Z,32.14
2017-04-06T02:16:56.476Z,32.04
2017-04-06T02:18:06.403Z,31.75
2017-04-06T02:19:16.013Z,31.85
2017-04-06T02:20:25.941Z,32.04
2017-04-06T02:21:36.181Z,32.04
2017-04-06T02:22:46.416Z,31.85
2017-04-06T02:23:56.340Z,32.23
2017-04-06T02:25:06.270Z,31.65
2017-04-06T02:26:16.503Z,31.85
2017-04-06T02:27:26.113Z,32.04
2017-04-06T02:28:36.045Z,31.65
2017-04-06T02:29:46.279Z,31.75
2017-04-06T02:30:56.520Z,31.95
2017-04-06T02:32:06.769Z,31.75
2017-04-06T02:33:17.008Z,31.37
2017-04-06T02:34:26.623Z,31.95
2017-04-06T02:35:36.546Z,32.14
2017-04-06T02:36:46.481Z,31.95
2017-04-06T02:37:56.721Z,32.23
2017-04-06T02:39:06.650Z,31.46
2017-04-06T02:40:16.894Z,32.14
2017-04-06T02:41:27.128Z,31.46
2017-04-06T02:42:36.744Z,32.04
2017-04-06T02:43:46.986Z,32.14
2017-04-06T02:44:57.229Z,31.56
2017-04-06T02:46:07.466Z,31.85
2017-04-06T02:47:17.720Z,32.04
2017-04-06T02:48:27.968Z,31.37
2017-04-06T02:49:37.892Z,32.04
2017-04-06T02:50:47.499Z,31.85
2017-04-06T02:51:57.737Z,32.04
2017-04-06T02:53:07.981Z,31.95
2017-04-06T02:54:17.912Z,31.75
2017-04-06T02:55:28.154Z,32.04
2017-04-06T02:56:38.415Z,32.14
2017-04-06T02:57:48.337Z,32.14
2017-04-06T02:58:58.262Z,31.65
2017-04-06T03:00:08.528Z,31.65
2017-04-06T03:01:18.768Z,31.56
2017-04-06T03:02:28.687Z,32.04
2017-04-06T03:03:38.630Z,31.95
2017-04-06T03:04:47.927Z,31.85
2017-04-06T03:05:57.543Z,31.85
2017-04-06T03:07:07.779Z,31.56
2017-04-06T03:08:17.698Z,32.23
2017-04-06T03:09:27.936Z,32.14
2017-04-06T03:10:37.560Z,32.14
2017-04-06T03:11:47.795Z,32.23
2017-04-06T03:12:57.104Z,32.23
2017-04-06T03:14:07.031Z,32.81
2017-04-06T03:15:17.276Z,32.62
2017-04-06T03:16:27.515Z,32.54
2017-04-06T03:17:37.754Z,32.64
2017-04-06T03:18:47.684Z,31.96
2017-04-06T03:19:57.920Z,31.77
2017-04-06T03:21:08.165Z,31.77
2017-04-06T03:22:18.413Z,31.48
2017-04-06T03:23:28.662Z,31.96
2017-04-06T03:24:38.901Z,31.77
2017-04-06T03:25:49.140Z,31.48
2017-04-06T03:26:59.383Z,32.15
2017-04-06T03:28:09.615Z,31.19
2017-04-06T03:29:18.919Z,31.48
2017-04-06T03:30:29.163Z,31.48
2017-04-06T03:31:39.095Z,31.38
2017-04-06T03:32:49.022Z,31.29
2017-04-06T03:33:58.351Z,31.29
2017-04-06T03:35:08.280Z,31.19
2017-04-06T03:36:18.206Z,30.61
2017-04-06T03:37:28.131Z,31.38
2017-04-06T03:38:38.068Z,31.38
2017-04-06T03:39:47.687Z,31.38
2017-04-06T03:40:57.608Z,31.57
2017-04-06T03:42:07.853Z,31
2017-04-06T03:43:18.088Z,30.8
2017-04-06T03:44:27.700Z,31.29
2017-04-06T03:45:37.934Z,31.38
2017-04-06T03:46:48.174Z,30.8
2017-04-06T03:47:58.102Z,30.9
2017-04-06T03:49:07.717Z,30.8
2017-04-06T03:50:17.641Z,30.9
2017-04-06T03:51:27.881Z,30.9
2017-04-06T03:52:38.133Z,31
2017-04-06T03:53:48.056Z,30.8
2017-04-06T03:54:58.291Z,31
2017-04-06T03:56:08.536Z,30.9
2017-04-06T03:57:18.777Z,30.8
2017-04-06T03:58:29.018Z,30.9
2017-04-06T03:59:39.265Z,30.52
2017-04-06T04:00:49.197Z,30.61
2017-04-06T04:01:59.128Z,31.19
2017-04-06T04:03:09.367Z,31
2017-04-06T04:04:19.288Z,31.29
2017-04-06T04:05:29.530Z,31.38
2017-04-06T04:06:39.766Z,31.57
2017-04-06T04:07:49.690Z,31.48
2017-04-06T04:08:59.297Z,31.57
2017-04-06T04:10:08.909Z,31.65
2017-04-06T04:11:18.843Z,31.75
2017-04-06T04:12:29.085Z,31.48
2017-04-06T04:13:38.696Z,31.56
2017-04-06T04:14:48.621Z,31.65
2017-04-06T04:15:58.854Z,31.18
2017-04-06T04:17:08.154Z,31.85
2017-04-06T04:18:18.081Z,31.56
2017-04-06T04:19:28.321Z,31.75
2017-04-06T04:20:38.241Z,31.56
2017-04-06T04:21:48.485Z,31.65
2017-04-06T04:22:58.728Z,31.95
2017-04-06T04:24:08.967Z,31.37
2017-04-06T04:25:18.587Z,31.56
2017-04-06T04:26:28.836Z,30.98
2017-04-06T04:27:38.760Z,31.46
2017-04-06T04:28:48.689Z,31.08
2017-04-06T04:29:58.616Z,31.37
2017-04-06T04:31:08.548Z,30.79
2017-04-06T04:32:18.159Z,30.88
2017-04-06T04:33:28.402Z,30.98
2017-04-06T04:34:38.328Z,30.69
2017-04-06T04:35:47.938Z,30.69
2017-04-06T04:36:57.864Z,30.69
2017-04-06T04:38:08.104Z,30.79
2017-04-06T04:39:18.028Z,30.6
2017-04-06T04:40:27.947Z,30.88
2017-04-06T04:41:38.183Z,31.08
2017-04-06T04:42:48.424Z,31.37
2017-04-06T04:43:58.659Z,30.88
2017-04-06T04:45:08.588Z,31.56
2017-04-06T04:46:18.510Z,31.65
2017-04-06T04:47:28.747Z,31.65
2017-04-06T04:48:38.705Z,32.14
2017-04-06T04:49:48.952Z,31.95
2017-04-06T04:50:58.251Z,31.85
2017-04-06T04:52:08.493Z,32.14
2017-04-06T04:53:18.423Z,31.95
2017-04-06T04:54:28.658Z,32.04
2017-04-06T04:55:38.899Z,32.43
2017-04-06T04:56:48.829Z,32.62
2017-04-06T04:57:58.759Z,32.62
2017-04-06T04:59:08.993Z,32.9
2017-04-06T05:00:18.919Z,32.43
2017-04-06T05:01:29.158Z,32.81
2017-04-06T05:02:39.083Z,32.71
2017-04-06T05:03:49.325Z,32.81
2017-04-06T05:04:59.566Z,32.71
2017-04-06T05:06:09.804Z,32.52
2017-04-06T05:07:19.730Z,32.62
2017-04-06T05:08:29.651Z,32.9
2017-04-06T05:09:39.578Z,32.52
2017-04-06T05:10:49.509Z,33
2017-04-06T05:11:59.752Z,32.9
2017-04-06T05:13:09.684Z,33.1
2017-04-06T05:14:19.603Z,33.1
2017-04-06T05:15:29.838Z,33.29
2017-04-06T05:16:40.080Z,33.67
2017-04-06T05:17:50.321Z,33.67
2017-04-06T05:19:00.554Z,33.48
2017-04-06T05:20:10.478Z,33.69
2017-04-06T05:21:20.723Z,33.69
2017-04-06T05:22:30.956Z,33.69
2017-04-06T05:23:41.200Z,33.69
2017-04-06T05:24:51.129Z,33.5
2017-04-06T05:26:01.365Z,33.79
2017-04-06T05:27:10.394Z,33.98
2017-04-06T05:28:20.317Z,33.79
2017-04-06T05:29:30.241Z,34.17
2017-04-06T05:30:40.170Z,34.17
2017-04-06T05:31:50.439Z,34.08
2017-04-06T05:33:00.678Z,34.08
2017-04-06T05:34:10.609Z,34.08
2017-04-06T05:35:20.537Z,34.27
2017-04-06T05:36:30.466Z,34.27
2017-04-06T05:37:40.706Z,34.46
2017-04-06T05:38:50.625Z,34.37
2017-04-06T05:40:00.858Z,34.27
2017-04-06T05:41:11.097Z,34.46
2017-04-06T05:42:21.342Z,34.27
2017-04-06T05:43:31.267Z,34.75
2017-04-06T05:44:41.543Z,34.66
2017-04-06T05:45:51.779Z,34.75
2017-04-06T05:47:02.019Z,34.17
2017-04-06T05:48:11.948Z,34.27
2017-04-06T05:49:22.197Z,34.27
2017-04-06T05:50:32.441Z,34.27
2017-04-06T05:51:42.085Z,34.75
2017-04-06T05:52:52.318Z,34.75
2017-04-06T05:54:02.551Z,34.37
2017-04-06T05:55:12.789Z,34.75
2017-04-06T05:56:22.715Z,34.46
2017-04-06T05:57:32.959Z,34.75
2017-04-06T05:58:42.574Z,34.66
2017-04-06T05:59:52.186Z,34.66
2017-04-06T06:01:02.424Z,34.56
2017-04-06T06:02:12.688Z,34.56
2017-04-06T06:03:22.616Z,34.46
2017-04-06T06:04:32.872Z,34.46
2017-04-06T06:05:43.106Z,34.46
2017-04-06T06:06:52.719Z,34.37
2017-04-06T06:08:02.966Z,34.75
2017-04-06T06:09:12.888Z,34.66
2017-04-06T06:10:23.132Z,35.04
2017-04-06T06:11:33.379Z,34.75
2017-04-06T06:12:43.615Z,34.75
2017-04-06T06:13:53.531Z,34.66
2017-04-06T06:15:03.142Z,34.84
2017-04-06T06:16:13.080Z,34.66
2017-04-06T06:17:23.340Z,34.66
2017-04-06T06:18:33.608Z,34.94
2017-04-06T06:19:43.848Z,34.94
2017-04-06T06:20:53.771Z,34.66
2017-04-06T06:22:04.013Z,35.04
2017-04-06T06:23:14.267Z,34.75
2017-04-06T06:24:23.880Z,34.94
2017-04-06T06:25:33.809Z,34.94
2017-04-06T06:26:44.057Z,34.75
2017-04-06T06:27:54.298Z,34.75
2017-04-06T06:29:04.218Z,34.94
2017-04-06T06:30:14.452Z,34.94
2017-04-06T06:31:24.065Z,34.75
2017-04-06T06:32:33.676Z,35.14
2017-04-06T06:33:43.603Z,35.24
2017-04-06T06:34:53.530Z,35.04
2017-04-06T06:36:03.767Z,35.42
2017-04-06T06:37:13.692Z,35.14
2017-04-06T06:38:23.937Z,35.42
2017-04-06T06:39:34.172Z,35.24
2017-04-06T06:40:44.414Z,35.33
2017-04-06T06:41:54.033Z,35.42
2017-04-06T06:43:04.280Z,35.42
2017-04-06T06:44:14.545Z,35.62
2017-04-06T06:45:24.784Z,35.24
2017-04-06T06:46:34.399Z,35.33
2017-04-06T06:47:43.699Z,35.04
2017-04-06T06:48:53.937Z,35.14
2017-04-06T06:50:03.876Z,35.52
2017-04-06T06:51:13.177Z,35.42
2017-04-06T06:52:22.810Z,35.14
2017-04-06T06:53:33.058Z,35.52
2017-04-06T06:54:42.979Z,35.14
2017-04-06T06:55:52.905Z,35.14
2017-04-06T06:57:03.140Z,35.24
2017-04-06T06:58:13.070Z,35.24
2017-04-06T06:59:22.684Z,35.33
2017-04-06T07:00:32.610Z,35.14
2017-04-06T07:01:42.847Z,35.04
2017-04-06T07:02:52.777Z,35.33
2017-04-06T07:04:02.703Z,35.33
2017-04-06T07:05:12.946Z,35.33
2017-04-06T07:06:22.592Z,35.52
2017-04-06T07:07:32.204Z,35.52
2017-04-06T07:08:42.449Z,35.42
2017-04-06T07:09:52.684Z,35.62
2017-04-06T07:11:02.928Z,35.42
2017-04-06T07:12:12.851Z,35.42
2017-04-06T07:13:22.774Z,35.14
2017-04-06T07:14:33.029Z,35.71
2017-04-06T07:15:43.270Z,35.14
2017-04-06T07:16:53.523Z,35.62
2017-04-06T07:18:03.451Z,35.52
2017-04-06T07:19:13.383Z,35.62
2017-04-06T07:20:23.306Z,35.52
2017-04-06T07:21:33.232Z,35.42
2017-04-06T07:22:43.469Z,35.52
2017-04-06T07:23:53.406Z,35.24
2017-04-06T07:25:03.648Z,35.24
2017-04-06T07:26:13.607Z,35.71
2017-04-06T07:27:23.845Z,35.62
2017-04-06T07:28:33.774Z,35.71
2017-04-06T07:29:43.698Z,36
2017-04-06T07:30:53.627Z,35.62
2017-04-06T07:32:03.243Z,35.91
2017-04-06T07:33:12.859Z,35.81
2017-04-06T07:34:22.780Z,36
2017-04-06T07:35:32.705Z,35.81
2017-04-06T07:36:42.645Z,35.81
2017-04-06T07:37:52.259Z,35.81
2017-04-06T07:39:02.188Z,35.52
2017-04-06T07:40:12.426Z,35.81
2017-04-06T07:41:22.660Z,35.71
2017-04-06T07:42:32.581Z,35.62
2017-04-06T07:43:42.813Z,35.81
2017-04-06T07:44:53.053Z,35.81
2017-04-06T07:46:02.976Z,35.71
2017-04-06T07:47:12.913Z,35.71
2017-04-06T07:48:22.842Z,35.71
2017-04-06T07:49:33.085Z,35.71
2017-04-06T07:50:43.012Z,35.71
2017-04-06T07:51:53.253Z,35.81
2017-04-06T07:53:02.864Z,35.42
2017-04-06T07:54:12.794Z,35.62
2017-04-06T07:55:22.733Z,35.33
2017-04-06T07:56:32.667Z,35.64
2017-04-06T07:57:42.594Z,35.73
2017-04-06T07:58:52.832Z,35.25
2017-04-06T08:00:02.756Z,35.73
2017-04-06T08:01:12.368Z,35.64
2017-04-06T08:02:22.606Z,35.44
2017-04-06T08:03:32.851Z,35.93
2017-04-06T08:04:42.470Z,35.93
2017-04-06T08:05:52.710Z,35.83
2017-04-06T08:07:02.328Z,35.93
2017-04-06T08:08:12.576Z,35.93
2017-04-06T08:09:22.505Z,35.83
2017-04-06T08:10:32.741Z,35.73
2017-04-06T08:11:42.044Z,35.73
2017-04-06T08:12:52.285Z,35.54
2017-04-06T08:14:02.523Z,35.73
2017-04-06T08:15:12.446Z,35.83
2017-04-06T08:16:22.367Z,35.73
2017-04-06T08:17:32.290Z,35.64
2017-04-06T08:18:42.212Z,35.73
2017-04-06T08:19:52.452Z,35.83
2017-04-06T08:21:02.705Z,35.83
2017-04-06T08:22:12.634Z,35.83
2017-04-06T08:23:22.875Z,35.83
2017-04-06T08:24:32.175Z,35.64
2017-04-06T08:25:41.787Z,35.73
2017-04-06T08:26:52.028Z,35.73
2017-04-06T08:28:02.278Z,35.83
2017-04-06T08:29:12.221Z,35.93
2017-04-06T08:30:21.831Z,35.64
2017-04-06T08:31:31.755Z,35.83
2017-04-06T08:32:41.693Z,35.64
2017-04-06T08:33:51.619Z,35.83
2017-04-06T08:35:01.864Z,35.93
2017-04-06T08:36:12.105Z,35.73
2017-04-06T08:37:22.033Z,35.83
2017-04-06T08:38:31.338Z,35.93
2017-04-06T08:39:40.953Z,35.73
2017-04-06T08:40:51.197Z,35.64
2017-04-06T08:42:01.440Z,35.83
2017-04-06T08:43:11.054Z,35.73
2017-04-06T08:44:21.291Z,35.73
2017-04-06T08:45:31.527Z,35.93
2017-04-06T08:46:41.764Z,35.73
2017-04-06T08:47:51.697Z,36.02
2017-04-06T08:49:01.620Z,35.93
2017-04-06T08:50:11.854Z,35.83
2017-04-06T08:51:21.778Z,36.02
2017-04-06T08:52:31.711Z,35.83
2017-04-06T08:53:41.958Z,35.93
2017-04-06T08:54:51.919Z,36.02
2017-04-06T08:56:01.845Z,35.93
2017-04-06T08:57:12.081Z,36.21
2017-04-06T08:58:22.315Z,36.02
2017-04-06T08:59:31.614Z,35.83
2017-04-06T09:00:41.534Z,36.11
2017-04-06T09:01:51.466Z,36.02
2017-04-06T09:03:01.107Z,36.11
2017-04-06T09:04:11.350Z,36.02
2017-04-06T09:05:21.285Z,36.11
2017-04-06T09:06:31.214Z,36.11
2017-04-06T09:07:41.452Z,36.31
2017-04-06T09:08:51.690Z,36.02
2017-04-06T09:10:01.929Z,36.02
2017-04-06T09:11:12.171Z,36.02
2017-04-06T09:12:22.103Z,36.02
2017-04-06T09:13:32.036Z,36.21
2017-04-06T09:14:42.279Z,36.11
2017-04-06T09:15:51.895Z,36.11
2017-04-06T09:17:02.136Z,36.21
2017-04-06T09:18:11.750Z,36.21
2017-04-06T09:19:21.987Z,36.11
2017-04-06T09:20:32.224Z,36.11
2017-04-06T09:21:42.162Z,36.11
2017-04-06T09:22:52.407Z,36.31
2017-04-06T09:24:02.641Z,36.31
2017-04-06T09:25:12.563Z,35.93
2017-04-06T09:26:22.819Z,36.11
2017-04-06T09:27:32.123Z,36.21
2017-04-06T09:28:42.047Z,36.11
2017-04-06T09:29:52.284Z,36.31
2017-04-06T09:31:02.209Z,36.11
2017-04-06T09:32:12.144Z,36.41
2017-04-06T09:33:22.383Z,36.21
2017-04-06T09:34:32.622Z,36.11
2017-04-06T09:35:42.242Z,36.11
2017-04-06T09:36:52.479Z,36.31
2017-04-06T09:38:02.717Z,36.41
2017-04-06T09:39:12.337Z,36.31
2017-04-06T09:40:22.583Z,36.02
2017-04-06T09:41:32.815Z,36.41
2017-04-06T09:42:43.067Z,36.21
2017-04-06T09:43:53.313Z,36.41
2017-04-06T09:45:03.570Z,36.11
2017-04-06T09:46:13.197Z,36.21
2017-04-06T09:47:23.120Z,36.21
2017-04-06T09:48:33.053Z,36.31
2017-04-06T09:49:43.290Z,36.11
2017-04-06T09:50:53.215Z,36.02
2017-04-06T09:52:03.152Z,36.21
2017-04-06T09:53:13.087Z,36.31
2017-04-06T09:54:23.008Z,36.41
2017-04-06T09:55:33.249Z,36.31
2017-04-06T09:56:43.172Z,36.21
2017-04-06T09:57:53.416Z,36.21
2017-04-06T09:59:03.369Z,36.11
2017-04-06T10:00:12.668Z,36.6
2017-04-06T10:01:22.936Z,36.51
2017-04-06T10:02:33.171Z,36.41
2017-04-06T10:03:43.413Z,36.41
2017-04-06T10:04:53.662Z,36.41
2017-04-06T10:06:03.598Z,36.21
2017-04-06T10:07:13.835Z,36.31
2017-04-06T10:08:23.447Z,36.31
2017-04-06T10:09:33.367Z,36.6
2017-04-06T10:10:43.610Z,36.11
2017-04-06T10:11:53.537Z,36.31
2017-04-06T10:13:03.784Z,36.11
2017-04-06T10:14:13.086Z,36.21
2017-04-06T10:15:23.012Z,36.51
2017-04-06T10:16:33.258Z,36.41
2017-04-06T10:17:43.188Z,36.31
2017-04-06T10:18:53.431Z,36.6
2017-04-06T10:20:03.353Z,36.6
2017-04-06T10:21:13.595Z,36.41
2017-04-06T10:22:23.839Z,36.41
2017-04-06T10:23:33.768Z,36.51
2017-04-06T10:24:44.000Z,36.21
2017-04-06T10:25:53.934Z,36.51
2017-04-06T10:27:04.177Z,36.51
2017-04-06T10:28:13.792Z,36.41
2017-04-06T10:29:23.718Z,36.6
2017-04-06T10:30:33.967Z,36.6
2017-04-06T10:31:43.581Z,36.69
2017-04-06T10:32:53.815Z,36.31
2017-04-06T10:34:04.053Z,36.51
2017-04-06T10:35:14.299Z,36.41
2017-04-06T10:36:24.538Z,36.6
2017-04-06T10:37:34.469Z,36.51
2017-04-06T10:38:44.391Z,36.21
2017-04-06T10:39:54.626Z,36.41
2017-04-06T10:41:04.551Z,36.31
2017-04-06T10:42:14.792Z,36.51
2017-04-06T10:43:25.065Z,36.41
2017-04-06T10:44:35.303Z,36.41
2017-04-06T10:45:45.537Z,36.41
2017-04-06T10:46:55.782Z,36.51
2017-04-06T10:48:05.724Z,36.51
2017-04-06T10:49:15.968Z,36.51
2017-04-06T10:50:26.212Z,36.51
2017-04-06T10:51:36.136Z,36.69
2017-04-06T10:52:46.369Z,36.69
2017-04-06T10:53:56.317Z,36.69
2017-04-06T10:55:06.576Z,36.89
2017-04-06T10:56:16.817Z,36.69
2017-04-06T10:57:26.756Z,36.79
2017-04-06T10:58:36.991Z,36.41
2017-04-06T10:59:47.228Z,36.79
2017-04-06T11:00:56.841Z,36.69
2017-04-06T11:02:06.770Z,36.99
2017-04-06T11:03:16.383Z,36.51
2017-04-06T11:04:26.307Z,36.31
2017-04-06T11:05:36.546Z,36.51
2017-04-06T11:06:46.179Z,36.89
2017-04-06T11:07:56.412Z,36.99
2017-04-06T11:09:06.649Z,37.08
2017-04-06T11:10:16.885Z,36.41
2017-04-06T11:11:26.815Z,36.69
2017-04-06T11:12:36.737Z,36.51
2017-04-06T11:13:46.981Z,36.41
2017-04-06T11:14:56.907Z,36.99
2017-04-06T11:16:07.147Z,36.99
2017-04-06T11:17:17.387Z,37.08
2017-04-06T11:18:27.626Z,36.51
2017-04-06T11:19:37.554Z,36.41
2017-04-06T11:20:47.803Z,36.41
2017-04-06T11:21:58.040Z,36.41
2017-04-06T11:23:07.970Z,36.51
2017-04-06T11:24:17.591Z,37.08
2017-04-06T11:25:27.830Z,37.08
2017-04-06T11:26:37.757Z,36.69
2017-04-06T11:27:47.998Z,36.6
2017-04-06T11:28:57.925Z,36.99
2017-04-06T11:30:08.174Z,36.41
2017-04-06T11:31:18.411Z,36.51
2017-04-06T11:32:28.658Z,36.51
2017-04-06T11:33:37.959Z,36.6
2017-04-06T11:34:48.196Z,37.08
2017-04-06T11:35:58.433Z,36.99
2017-04-06T11:37:08.773Z,36.51
2017-04-06T11:38:18.699Z,36.99
2017-04-06T11:39:28.629Z,36.69
2017-04-06T11:40:38.250Z,36.41
2017-04-06T11:41:48.491Z,36.79
2017-04-06T11:42:58.737Z,36.79
2017-04-06T11:44:08.975Z,36.99
2017-04-06T11:45:19.214Z,36.6
2017-04-06T11:46:29.453Z,36.41
2017-04-06T11:47:39.381Z,36.51
2017-04-06T11:48:49.617Z,36.6
2017-04-06T11:49:59.233Z,36.51
2017-04-06T11:51:09.467Z,36.69
2017-04-06T11:52:19.084Z,36.6
2017-04-06T11:53:29.321Z,36.69
2017-04-06T11:54:39.245Z,36.41
2017-04-06T11:55:49.488Z,36.69
2017-04-06T11:56:59.743Z,36.89
2017-04-06T11:58:09.685Z,36.69
2017-04-06T11:59:19.302Z,36.51
2017-04-06T12:00:28.917Z,36.69
2017-04-06T12:01:38.533Z,36.79
2017-04-06T12:02:48.453Z,36.69
2017-04-06T12:03:58.376Z,36.6
2017-04-06T12:05:08.618Z,36.69
2017-04-06T12:06:18.887Z,36.69
2017-04-06T12:07:28.821Z,36.69
2017-04-06T12:08:38.748Z,36.69
2017-04-06T12:09:48.676Z,36.79
2017-04-06T12:10:58.909Z,36.79
2017-04-06T12:12:09.149Z,36.51
2017-04-06T12:13:19.392Z,36.69
2017-04-06T12:14:29.628Z,36.69
2017-04-06T12:15:39.257Z,36.69
2017-04-06T12:16:49.185Z,36.6
2017-04-06T12:17:59.420Z,36.69
2017-04-06T12:19:09.657Z,36.69
2017-04-06T12:20:19.615Z,36.89
2017-04-06T12:21:29.228Z,36.89
2017-04-06T12:22:39.154Z,36.89
2017-04-06T12:23:49.403Z,36.79
2017-04-06T12:24:59.645Z,36.99
2017-04-06T12:26:09.261Z,36.99
2017-04-06T12:27:19.187Z,37.18
2017-04-06T12:28:29.113Z,36.89
2017-04-06T12:29:39.045Z,36.6
2017-04-06T12:30:49.341Z,36.6
2017-04-06T12:31:59.580Z,36.41
2017-04-06T12:33:09.505Z,36.6
2017-04-06T12:34:19.744Z,36.79
2017-04-06T12:35:29.706Z,36.79
2017-04-06T12:36:39.941Z,36.69
2017-04-06T12:37:50.195Z,36.89
2017-04-06T12:39:00.117Z,36.99
2017-04-06T12:40:10.045Z,37.08
2017-04-06T12:41:19.982Z,37.27
2017-04-06T12:42:29.909Z,37.27
2017-04-06T12:43:40.149Z,37.66
2017-04-06T12:44:50.080Z,37.37
2017-04-06T12:46:00.322Z,37.46
2017-04-06T12:47:10.565Z,37.08
2017-04-06T12:48:20.189Z,37.18
2017-04-06T12:49:30.142Z,37.37
2017-04-06T12:50:39.756Z,37.18
2017-04-06T12:51:50.005Z,37.37
2017-04-06T12:53:00.248Z,37.46
2017-04-06T12:54:09.888Z,37.46
2017-04-06T12:55:20.160Z,37.37
2017-04-06T12:56:30.095Z,37.27
2017-04-06T12:57:40.022Z,37.85
2017-04-06T12:58:49.951Z,37.46
2017-04-06T12:59:59.877Z,37.85
2017-04-06T13:01:10.125Z,37.66
2017-04-06T13:02:20.370Z,37.85
2017-04-06T13:03:30.606Z,37.56
2017-04-06T13:04:40.850Z,37.56
2017-04-06T13:05:50.809Z,37.76
2017-04-06T13:07:00.736Z,37.46
2017-04-06T13:08:10.662Z,37.58
2017-04-06T13:09:20.596Z,37.76
2017-04-06T13:10:30.835Z,37.95
2017-04-06T13:11:40.761Z,37.77
2017-04-06T13:12:51.035Z,37.66
2017-04-06T13:14:00.651Z,38.33
2017-04-06T13:15:10.578Z,38.24
2017-04-06T13:16:20.821Z,38.14
2017-04-06T13:17:31.062Z,38.43
2017-04-06T13:18:41.298Z,38.54
2017-04-06T13:19:51.231Z,38.33
2017-04-06T13:21:01.473Z,37.96
2017-04-06T13:22:11.726Z,38.26
2017-04-06T13:23:21.654Z,38.26
2017-04-06T13:24:31.896Z,37.87
2017-04-06T13:25:42.137Z,37.96
2017-04-06T13:26:52.068Z,37.68
2017-04-06T13:28:02.317Z,38.16
2017-04-06T13:29:12.245Z,37.95
2017-04-06T13:30:22.173Z,38.26
2017-04-06T13:31:32.102Z,38.06
2017-04-06T13:32:42.030Z,38.14
2017-04-06T13:33:51.642Z,37.85
2017-04-06T13:35:01.567Z,38.16
2017-04-06T13:36:10.872Z,38.16
2017-04-06T13:37:20.801Z,38.45
2017-04-06T13:38:31.071Z,38.64
2017-04-06T13:39:41.001Z,38.35
2017-04-06T13:40:51.273Z,38.53
2017-04-06T13:42:01.509Z,38.35
2017-04-06T13:43:11.461Z,38.45
2017-04-06T13:44:21.389Z,38.45
2017-04-06T13:45:31.626Z,38.54
2017-04-06T13:46:41.552Z,38.45
2017-04-06T13:47:51.476Z,38.35
2017-04-06T13:49:01.720Z,38.33
2017-04-06T13:50:11.960Z,38.35
2017-04-06T13:51:21.889Z,38.53
2017-04-06T13:52:31.809Z,38.33
2017-04-06T13:53:41.420Z,37.96
2017-04-06T13:54:51.032Z,38.35
2017-04-06T13:56:00.641Z,38.35
2017-04-06T13:57:10.581Z,38.43
2017-04-06T13:58:20.820Z,38.24
2017-04-06T13:59:31.065Z,38.26
2017-04-06T14:00:40.360Z,38.35
2017-04-06T14:01:50.597Z,38.72
2017-04-06T14:03:00.211Z,38.54
2017-04-06T14:04:10.133Z,38.54
2017-04-06T14:05:20.377Z,38.54
2017-04-06T14:06:30.308Z,38.64
2017-04-06T14:07:40.240Z,38.35
2017-04-06T14:08:50.477Z,38.45
2017-04-06T14:10:00.400Z,38.74
2017-04-06T14:11:10.638Z,38.64
2017-04-06T14:12:20.572Z,38.93
2017-04-06T14:13:30.811Z,38.93
2017-04-06T14:14:40.111Z,39.41
2017-04-06T14:15:50.351Z,39.22
2017-04-06T14:17:00.600Z,39.51
2017-04-06T14:18:10.839Z,39.51
2017-04-06T14:19:20.766Z,39.51
2017-04-06T14:20:31.005Z,38.93
2017-04-06T14:21:40.618Z,39.03
2017-04-06T14:22:50.235Z,38.74
2017-04-06T14:24:00.162Z,39.12
2017-04-06T14:25:10.398Z,38.93
2017-04-06T14:26:20.329Z,39.41
2017-04-06T14:27:29.628Z,38.93
2017-04-06T14:28:39.864Z,39.12
2017-04-06T14:29:50.132Z,39.31
2017-04-06T14:31:00.058Z,38.93
2017-04-06T14:32:09.670Z,38.74
2017-04-06T14:33:19.292Z,38.64
2017-04-06T14:34:29.222Z,38.54
2017-04-06T14:35:39.153Z,38.74
2017-04-06T14:36:49.388Z,38.83
2017-04-06T14:37:59.316Z,38.54
2017-04-06T14:39:09.239Z,38.45
2017-04-06T14:40:19.481Z,38.74
2017-04-06T14:41:29.726Z,38.45
2017-04-06T14:42:39.022Z,38.74
2017-04-06T14:43:48.956Z,38.35
2017-04-06T14:44:59.192Z,38.45
2017-04-06T14:46:09.439Z,38.45
2017-04-06T14:47:19.054Z,38.54
2017-04-06T14:48:29.296Z,38.64
2017-04-06T14:49:39.531Z,38.64
2017-04-06T14:50:49.460Z,38.54
2017-04-06T14:51:59.701Z,38.64
2017-04-06T14:53:09.942Z,38.64
2017-04-06T14:54:20.182Z,38.26
2017-04-06T14:55:30.117Z,38.54
2017-04-06T14:56:40.352Z,38.35
2017-04-06T14:57:50.587Z,38.45
2017-04-06T14:59:00.508Z,38.54
2017-04-06T15:00:10.750Z,38.45
2017-04-06T15:01:20.995Z,38.35
2017-04-06T15:02:30.924Z,38.45
2017-04-06T15:03:41.159Z,38.45